sensor_id;sensor_type;location;lat;lon;timestamp;pressure;altitude;pressure_sealevel;temperature;humidity
37904;BME280;23738;50.422;18.758;2023-12-04T00:00:42;99120.13;;;-4.49;90.06
37904;BME280;23738;50.422;18.758;2023-12-04T00:03:11;99118.62;;;-4.53;89.99
37904;BME280;23738;50.422;18.758;2023-12-04T00:05:43;99116.60;;;-4.54;89.77
37904;BME280;23738;50.422;18.758;2023-12-04T00:08:14;99117.29;;;-4.54;89.81
37904;BME280;23738;50.422;18.758;2023-12-04T00:10:44;99113.29;;;-4.58;89.74
37904;BME280;23738;50.422;18.758;2023-12-04T00:13:14;99116.06;;;-4.59;89.83
37904;BME280;23738;50.422;18.758;2023-12-04T00:15:44;99122.10;;;-4.62;89.77
37904;BME280;23738;50.422;18.758;2023-12-04T00:18:14;99122.79;;;-4.68;89.68
37904;BME280;23738;50.422;18.758;2023-12-04T00:20:44;99124.98;;;-4.70;89.99
37904;BME280;23738;50.422;18.758;2023-12-04T00:23:13;99120.61;;;-4.72;90.00
37904;BME280;23738;50.422;18.758;2023-12-04T00:25:43;99125.92;;;-4.75;90.01
37904;BME280;23738;50.422;18.758;2023-12-04T00:28:13;99126.02;;;-4.76;89.98
37904;BME280;23738;50.422;18.758;2023-12-04T00:30:43;99115.15;;;-4.82;89.93
37904;BME280;23738;50.422;18.758;2023-12-04T00:33:13;99122.66;;;-4.78;89.92
37904;BME280;23738;50.422;18.758;2023-12-04T00:35:43;99117.58;;;-4.76;89.81
37904;BME280;23738;50.422;18.758;2023-12-04T00:38:13;99116.88;;;-4.73;89.82
37904;BME280;23738;50.422;18.758;2023-12-04T00:40:43;99118.80;;;-4.74;89.72
37904;BME280;23738;50.422;18.758;2023-12-04T00:43:13;99120.02;;;-4.77;89.51
37904;BME280;23738;50.422;18.758;2023-12-04T00:45:43;99122.71;;;-4.82;89.59
37904;BME280;23738;50.422;18.758;2023-12-04T00:48:13;99125.64;;;-4.87;89.55
37904;BME280;23738;50.422;18.758;2023-12-04T00:54:04;99125.02;;;-5.04;89.52
37904;BME280;23738;50.422;18.758;2023-12-04T00:56:34;99125.73;;;-5.10;89.63
37904;BME280;23738;50.422;18.758;2023-12-04T00:59:03;99129.53;;;-5.16;89.29
37904;BME280;23738;50.422;18.758;2023-12-04T01:01:34;99129.72;;;-5.22;89.42
37904;BME280;23738;50.422;18.758;2023-12-04T01:04:05;99133.33;;;-5.26;89.25
37904;BME280;23738;50.422;18.758;2023-12-04T01:06:35;99136.15;;;-5.27;89.15
37904;BME280;23738;50.422;18.758;2023-12-04T01:09:05;99134.39;;;-5.26;89.26
37904;BME280;23738;50.422;18.758;2023-12-04T01:11:35;99135.55;;;-5.26;89.42
37904;BME280;23738;50.422;18.758;2023-12-04T01:14:05;99133.77;;;-5.27;89.13
37904;BME280;23738;50.422;18.758;2023-12-04T01:16:36;99137.42;;;-5.31;89.03
37904;BME280;23738;50.422;18.758;2023-12-04T01:19:05;99136.65;;;-5.39;89.14
37904;BME280;23738;50.422;18.758;2023-12-04T01:21:37;99142.37;;;-5.47;88.86
37904;BME280;23738;50.422;18.758;2023-12-04T01:24:07;99146.89;;;-5.53;88.90
37904;BME280;23738;50.422;18.758;2023-12-04T01:26:37;99146.28;;;-5.58;88.98
37904;BME280;23738;50.422;18.758;2023-12-04T01:29:07;99145.59;;;-5.64;88.92
37904;BME280;23738;50.422;18.758;2023-12-04T01:31:37;99147.10;;;-5.70;88.78
37904;BME280;23738;50.422;18.758;2023-12-04T01:34:07;99150.19;;;-5.73;88.97
37904;BME280;23738;50.422;18.758;2023-12-04T01:36:41;99150.78;;;-5.74;89.01
37904;BME280;23738;50.422;18.758;2023-12-04T01:39:11;99152.12;;;-5.74;88.86
37904;BME280;23738;50.422;18.758;2023-12-04T01:41:42;99150.11;;;-5.74;88.81
37904;BME280;23738;50.422;18.758;2023-12-04T01:44:12;99151.26;;;-5.77;88.93
37904;BME280;23738;50.422;18.758;2023-12-04T01:46:42;99149.73;;;-5.80;89.00
37904;BME280;23738;50.422;18.758;2023-12-04T01:49:15;99146.63;;;-5.86;88.79
37904;BME280;23738;50.422;18.758;2023-12-04T01:51:46;99149.78;;;-5.93;88.41
37904;BME280;23738;50.422;18.758;2023-12-04T01:54:17;99150.95;;;-5.99;88.71
37904;BME280;23738;50.422;18.758;2023-12-04T01:56:47;99151.55;;;-6.07;88.38
37904;BME280;23738;50.422;18.758;2023-12-04T01:59:18;99151.56;;;-6.14;88.40
37904;BME280;23738;50.422;18.758;2023-12-04T02:02:09;99150.02;;;-6.21;88.33
37904;BME280;23738;50.422;18.758;2023-12-04T02:04:39;99146.52;;;-6.29;88.41
37904;BME280;23738;50.422;18.758;2023-12-04T02:07:09;99153.67;;;-6.31;88.28
37904;BME280;23738;50.422;18.758;2023-12-04T02:09:40;99155.34;;;-6.34;88.11
37904;BME280;23738;50.422;18.758;2023-12-04T02:12:10;99153.28;;;-6.34;88.29
37904;BME280;23738;50.422;18.758;2023-12-04T02:14:40;99148.49;;;-6.34;88.31
37904;BME280;23738;50.422;18.758;2023-12-04T02:17:13;99153.15;;;-6.35;88.05
37904;BME280;23738;50.422;18.758;2023-12-04T02:19:44;99145.36;;;-6.40;88.20
37904;BME280;23738;50.422;18.758;2023-12-04T02:22:13;99144.05;;;-6.44;87.98
37904;BME280;23738;50.422;18.758;2023-12-04T02:24:46;99145.05;;;-6.50;87.88
37904;BME280;23738;50.422;18.758;2023-12-04T02:27:23;99141.14;;;-6.58;87.79
37904;BME280;23738;50.422;18.758;2023-12-04T02:29:58;99140.63;;;-6.64;87.73
37904;BME280;23738;50.422;18.758;2023-12-04T02:32:31;99139.77;;;-6.71;87.99
37904;BME280;23738;50.422;18.758;2023-12-04T02:35:06;99144.58;;;-6.78;87.71
37904;BME280;23738;50.422;18.758;2023-12-04T02:37:38;99146.22;;;-6.87;87.72
37904;BME280;23738;50.422;18.758;2023-12-04T02:40:10;99151.39;;;-6.94;87.53
37904;BME280;23738;50.422;18.758;2023-12-04T02:42:40;99148.78;;;-7.01;87.76
37904;BME280;23738;50.422;18.758;2023-12-04T02:45:12;99146.58;;;-7.04;87.35
37904;BME280;23738;50.422;18.758;2023-12-04T02:47:42;99143.39;;;-7.06;87.56
37904;BME280;23738;50.422;18.758;2023-12-04T02:50:12;99143.34;;;-7.05;87.67
37904;BME280;23738;50.422;18.758;2023-12-04T02:52:43;99142.81;;;-7.02;87.67
37904;BME280;23738;50.422;18.758;2023-12-04T02:55:14;99143.48;;;-6.97;87.69
37904;BME280;23738;50.422;18.758;2023-12-04T02:57:46;99145.79;;;-6.92;87.76
37904;BME280;23738;50.422;18.758;2023-12-04T03:00:17;99147.46;;;-6.91;87.76
37904;BME280;23738;50.422;18.758;2023-12-04T03:02:48;99143.90;;;-6.92;87.37
37904;BME280;23738;50.422;18.758;2023-12-04T03:05:18;99145.21;;;-6.98;87.15
37904;BME280;23738;50.422;18.758;2023-12-04T03:07:49;99137.38;;;-7.09;86.99
37904;BME280;23738;50.422;18.758;2023-12-04T03:10:20;99142.41;;;-7.14;86.76
37904;BME280;23738;50.422;18.758;2023-12-04T03:12:51;99144.80;;;-7.24;86.75
37904;BME280;23738;50.422;18.758;2023-12-04T03:15:21;99142.17;;;-7.34;86.71
37904;BME280;23738;50.422;18.758;2023-12-04T03:17:52;99139.09;;;-7.44;86.61
37904;BME280;23738;50.422;18.758;2023-12-04T03:20:22;99134.70;;;-7.56;86.44
37904;BME280;23738;50.422;18.758;2023-12-04T03:22:53;99138.29;;;-7.71;85.90
37904;BME280;23738;50.422;18.758;2023-12-04T03:25:24;99138.12;;;-7.86;85.92
37904;BME280;23738;50.422;18.758;2023-12-04T03:27:55;99141.97;;;-7.99;85.57
37904;BME280;23738;50.422;18.758;2023-12-04T03:30:26;99144.20;;;-8.06;86.03
37904;BME280;23738;50.422;18.758;2023-12-04T03:32:57;99148.61;;;-8.09;86.38
37904;BME280;23738;50.422;18.758;2023-12-04T03:35:28;99154.44;;;-8.10;86.23
37904;BME280;23738;50.422;18.758;2023-12-04T03:37:59;99157.64;;;-8.08;86.34
37904;BME280;23738;50.422;18.758;2023-12-04T03:40:30;99155.63;;;-8.10;86.38
37904;BME280;23738;50.422;18.758;2023-12-04T03:43:01;99170.38;;;-8.03;86.49
37904;BME280;23738;50.422;18.758;2023-12-04T03:45:31;99171.30;;;-8.01;86.35
37904;BME280;23738;50.422;18.758;2023-12-04T03:48:00;99175.30;;;-7.99;86.25
37904;BME280;23738;50.422;18.758;2023-12-04T03:50:30;99175.27;;;-7.98;86.24
37904;BME280;23738;50.422;18.758;2023-12-04T03:53:01;99177.23;;;-7.96;86.37
37904;BME280;23738;50.422;18.758;2023-12-04T03:55:31;99177.02;;;-7.95;86.10
37904;BME280;23738;50.422;18.758;2023-12-04T03:58:01;99181.17;;;-7.96;86.14
37904;BME280;23738;50.422;18.758;2023-12-04T04:00:31;99188.90;;;-8.01;86.06
37904;BME280;23738;50.422;18.758;2023-12-04T04:03:01;99189.55;;;-8.04;86.15
37904;BME280;23738;50.422;18.758;2023-12-04T04:05:30;99183.71;;;-8.07;86.07
37904;BME280;23738;50.422;18.758;2023-12-04T04:08:02;99188.90;;;-8.12;86.06
37904;BME280;23738;50.422;18.758;2023-12-04T04:10:33;99187.14;;;-8.19;86.10
37904;BME280;23738;50.422;18.758;2023-12-04T04:13:03;99184.40;;;-8.26;86.13
37904;BME280;23738;50.422;18.758;2023-12-04T04:15:34;99191.29;;;-8.31;85.92
37904;BME280;23738;50.422;18.758;2023-12-04T04:18:03;99194.15;;;-8.37;85.83
37904;BME280;23738;50.422;18.758;2023-12-04T04:20:34;99191.87;;;-8.44;85.89
37904;BME280;23738;50.422;18.758;2023-12-04T04:23:04;99193.86;;;-8.46;85.91
37904;BME280;23738;50.422;18.758;2023-12-04T04:25:33;99191.52;;;-8.47;85.95
37904;BME280;23738;50.422;18.758;2023-12-04T04:28:03;99185.20;;;-8.48;86.02
37904;BME280;23738;50.422;18.758;2023-12-04T04:30:33;99188.29;;;-8.44;85.85
37904;BME280;23738;50.422;18.758;2023-12-04T04:33:03;99186.92;;;-8.40;85.99
37904;BME280;23738;50.422;18.758;2023-12-04T04:35:33;99185.41;;;-8.33;86.03
37904;BME280;23738;50.422;18.758;2023-12-04T04:38:04;99183.34;;;-8.29;86.11
37904;BME280;23738;50.422;18.758;2023-12-04T04:40:34;99187.10;;;-8.25;85.92
37904;BME280;23738;50.422;18.758;2023-12-04T04:43:03;99189.36;;;-8.23;86.11
37904;BME280;23738;50.422;18.758;2023-12-04T04:45:34;99192.38;;;-8.17;86.10
37904;BME280;23738;50.422;18.758;2023-12-04T04:48:05;99188.38;;;-8.12;86.16
37904;BME280;23738;50.422;18.758;2023-12-04T04:50:37;99186.50;;;-8.08;86.13
37904;BME280;23738;50.422;18.758;2023-12-04T04:53:07;99183.41;;;-8.08;86.03
37904;BME280;23738;50.422;18.758;2023-12-04T04:55:36;99183.74;;;-8.12;85.82
37904;BME280;23738;50.422;18.758;2023-12-04T04:58:06;99182.58;;;-8.20;85.59
37904;BME280;23738;50.422;18.758;2023-12-04T05:00:36;99179.60;;;-8.26;85.79
37904;BME280;23738;50.422;18.758;2023-12-04T05:03:06;99175.47;;;-8.32;85.64
37904;BME280;23738;50.422;18.758;2023-12-04T05:05:36;99175.67;;;-8.37;85.75
37904;BME280;23738;50.422;18.758;2023-12-04T05:08:06;99169.69;;;-8.45;85.64
37904;BME280;23738;50.422;18.758;2023-12-04T05:10:37;99164.86;;;-8.52;85.58
37904;BME280;23738;50.422;18.758;2023-12-04T05:13:07;99161.88;;;-8.58;85.70
37904;BME280;23738;50.422;18.758;2023-12-04T05:15:37;99162.73;;;-8.62;85.55
37904;BME280;23738;50.422;18.758;2023-12-04T05:18:08;99161.59;;;-8.63;85.72
37904;BME280;23738;50.422;18.758;2023-12-04T05:20:38;99162.30;;;-8.60;85.63
37904;BME280;23738;50.422;18.758;2023-12-04T05:23:07;99161.13;;;-8.56;85.77
37904;BME280;23738;50.422;18.758;2023-12-04T05:25:37;99157.98;;;-8.51;85.86
37904;BME280;23738;50.422;18.758;2023-12-04T05:28:07;99157.75;;;-8.45;85.86
37904;BME280;23738;50.422;18.758;2023-12-04T05:30:38;99158.36;;;-8.40;85.85
37904;BME280;23738;50.422;18.758;2023-12-04T05:33:08;99165.21;;;-8.32;85.93
37904;BME280;23738;50.422;18.758;2023-12-04T05:35:38;99166.27;;;-8.26;86.01
37904;BME280;23738;50.422;18.758;2023-12-04T05:38:08;99163.70;;;-8.22;85.92
37904;BME280;23738;50.422;18.758;2023-12-04T05:40:38;99162.65;;;-8.18;85.81
37904;BME280;23738;50.422;18.758;2023-12-04T05:43:08;99164.38;;;-8.14;85.88
37904;BME280;23738;50.422;18.758;2023-12-04T05:45:38;99159.25;;;-8.14;85.68
37904;BME280;23738;50.422;18.758;2023-12-04T05:48:08;99155.10;;;-8.21;85.83
37904;BME280;23738;50.422;18.758;2023-12-04T05:50:38;99155.79;;;-8.25;85.66
37904;BME280;23738;50.422;18.758;2023-12-04T05:53:09;99154.64;;;-8.29;85.78
37904;BME280;23738;50.422;18.758;2023-12-04T05:55:38;99160.26;;;-8.36;85.54
37904;BME280;23738;50.422;18.758;2023-12-04T05:58:08;99161.59;;;-8.43;85.55
37904;BME280;23738;50.422;18.758;2023-12-04T06:00:38;99164.16;;;-8.51;85.40
37904;BME280;23738;50.422;18.758;2023-12-04T06:03:09;99158.65;;;-8.59;85.55
37904;BME280;23738;50.422;18.758;2023-12-04T06:05:38;99157.73;;;-8.65;85.45
37904;BME280;23738;50.422;18.758;2023-12-04T06:08:08;99153.63;;;-8.69;85.41
37904;BME280;23738;50.422;18.758;2023-12-04T06:10:38;99155.59;;;-8.71;85.34
37904;BME280;23738;50.422;18.758;2023-12-04T06:13:08;99158.63;;;-8.70;85.31
37904;BME280;23738;50.422;18.758;2023-12-04T06:15:38;99156.14;;;-8.68;85.39
37904;BME280;23738;50.422;18.758;2023-12-04T06:18:08;99158.11;;;-8.62;85.56
37904;BME280;23738;50.422;18.758;2023-12-04T06:20:37;99161.27;;;-8.56;85.42
37904;BME280;23738;50.422;18.758;2023-12-04T06:23:08;99156.14;;;-8.52;85.44
37904;BME280;23738;50.422;18.758;2023-12-04T06:25:40;99154.21;;;-8.46;85.49
37904;BME280;23738;50.422;18.758;2023-12-04T06:28:12;99160.26;;;-8.36;85.65
37904;BME280;23738;50.422;18.758;2023-12-04T06:30:43;99157.15;;;-8.29;85.57
37904;BME280;23738;50.422;18.758;2023-12-04T06:33:14;99155.45;;;-8.29;85.47
37904;BME280;23738;50.422;18.758;2023-12-04T06:35:47;99154.27;;;-8.29;85.45
37904;BME280;23738;50.422;18.758;2023-12-04T06:38:20;99151.20;;;-8.32;85.39
37904;BME280;23738;50.422;18.758;2023-12-04T06:40:54;99143.85;;;-8.40;85.31
37904;BME280;23738;50.422;18.758;2023-12-04T06:43:26;99146.91;;;-8.44;85.35
37904;BME280;23738;50.422;18.758;2023-12-04T06:45:57;99148.98;;;-8.48;85.36
37904;BME280;23738;50.422;18.758;2023-12-04T06:48:30;99154.19;;;-8.54;85.31
37904;BME280;23738;50.422;18.758;2023-12-04T06:51:00;99152.23;;;-8.61;85.27
37904;BME280;23738;50.422;18.758;2023-12-04T06:53:30;99146.62;;;-8.69;85.25
37904;BME280;23738;50.422;18.758;2023-12-04T06:56:00;99150.64;;;-8.75;85.14
37904;BME280;23738;50.422;18.758;2023-12-04T06:58:30;99153.60;;;-8.80;84.96
37904;BME280;23738;50.422;18.758;2023-12-04T07:00:59;99159.50;;;-8.83;84.71
37904;BME280;23738;50.422;18.758;2023-12-04T07:03:30;99157.11;;;-8.82;84.78
37904;BME280;23738;50.422;18.758;2023-12-04T07:06:01;99155.83;;;-8.80;84.88
37904;BME280;23738;50.422;18.758;2023-12-04T07:08:30;99157.17;;;-8.76;84.85
37904;BME280;23738;50.422;18.758;2023-12-04T07:11:00;99158.47;;;-8.70;85.07
37904;BME280;23738;50.422;18.758;2023-12-04T07:13:30;99158.25;;;-8.61;85.15
37904;BME280;23738;50.422;18.758;2023-12-04T07:16:00;99158.73;;;-8.56;84.91
37904;BME280;23738;50.422;18.758;2023-12-04T07:18:31;99160.13;;;-8.54;84.93
37904;BME280;23738;50.422;18.758;2023-12-04T07:21:01;99159.61;;;-8.49;85.00
37904;BME280;23738;50.422;18.758;2023-12-04T07:23:32;99158.05;;;-8.45;84.96
37904;BME280;23738;50.422;18.758;2023-12-04T07:26:02;99160.98;;;-8.41;84.74
37904;BME280;23738;50.422;18.758;2023-12-04T07:28:32;99157.11;;;-8.38;84.99
37904;BME280;23738;50.422;18.758;2023-12-04T07:31:03;99161.58;;;-8.39;84.91
37904;BME280;23738;50.422;18.758;2023-12-04T07:33:33;99163.95;;;-8.42;84.89
37904;BME280;23738;50.422;18.758;2023-12-04T07:36:03;99161.50;;;-8.49;84.72
37904;BME280;23738;50.422;18.758;2023-12-04T07:38:33;99162.30;;;-8.56;84.56
37904;BME280;23738;50.422;18.758;2023-12-04T07:41:03;99163.96;;;-8.63;84.45
37904;BME280;23738;50.422;18.758;2023-12-04T07:43:34;99157.82;;;-8.67;84.58
37904;BME280;23738;50.422;18.758;2023-12-04T07:46:04;99150.20;;;-8.69;84.92
37904;BME280;23738;50.422;18.758;2023-12-04T07:48:34;99151.31;;;-8.70;84.68
37904;BME280;23738;50.422;18.758;2023-12-04T07:51:05;99151.02;;;-8.71;84.66
37904;BME280;23738;50.422;18.758;2023-12-04T07:53:35;99149.48;;;-8.68;84.79
37904;BME280;23738;50.422;18.758;2023-12-04T07:56:07;99149.02;;;-8.61;84.79
37904;BME280;23738;50.422;18.758;2023-12-04T07:58:37;99150.79;;;-8.54;84.80
37904;BME280;23738;50.422;18.758;2023-12-04T08:01:08;99149.49;;;-8.48;84.69
37904;BME280;23738;50.422;18.758;2023-12-04T08:03:37;99144.60;;;-8.38;84.97
37904;BME280;23738;50.422;18.758;2023-12-04T08:06:08;99148.36;;;-8.23;84.96
37904;BME280;23738;50.422;18.758;2023-12-04T08:08:38;99150.27;;;-8.12;84.91
37904;BME280;23738;50.422;18.758;2023-12-04T08:11:10;99146.77;;;-7.99;85.14
37904;BME280;23738;50.422;18.758;2023-12-04T08:13:41;99151.08;;;-7.88;85.29
37904;BME280;23738;50.422;18.758;2023-12-04T08:16:16;99151.30;;;-7.86;85.06
37904;BME280;23738;50.422;18.758;2023-12-04T08:18:45;99146.05;;;-7.83;85.26
37904;BME280;23738;50.422;18.758;2023-12-04T08:21:15;99149.32;;;-7.76;85.37
37904;BME280;23738;50.422;18.758;2023-12-04T08:23:45;99145.95;;;-7.74;85.32
37904;BME280;23738;50.422;18.758;2023-12-04T08:26:15;99146.35;;;-7.71;85.03
37904;BME280;23738;50.422;18.758;2023-12-04T08:28:50;99146.17;;;-7.71;85.02
37904;BME280;23738;50.422;18.758;2023-12-04T08:31:20;99150.17;;;-7.69;85.22
37904;BME280;23738;50.422;18.758;2023-12-04T08:33:50;99150.55;;;-7.70;85.04
37904;BME280;23738;50.422;18.758;2023-12-04T08:36:20;99151.17;;;-7.73;85.16
37904;BME280;23738;50.422;18.758;2023-12-04T08:38:49;99152.01;;;-7.72;85.18
37904;BME280;23738;50.422;18.758;2023-12-04T08:41:19;99152.38;;;-7.68;85.39
37904;BME280;23738;50.422;18.758;2023-12-04T08:43:49;99149.65;;;-7.58;85.46
37904;BME280;23738;50.422;18.758;2023-12-04T08:46:19;99153.49;;;-7.45;85.55
37904;BME280;23738;50.422;18.758;2023-12-04T08:48:49;99156.92;;;-7.31;85.59
37904;BME280;23738;50.422;18.758;2023-12-04T08:51:19;99154.86;;;-7.16;85.52
37904;BME280;23738;50.422;18.758;2023-12-04T08:53:49;99152.16;;;-7.00;85.54
37904;BME280;23738;50.422;18.758;2023-12-04T08:56:19;99147.91;;;-6.79;85.80
37904;BME280;23738;50.422;18.758;2023-12-04T08:58:49;99148.73;;;-6.55;86.40
37904;BME280;23738;50.422;18.758;2023-12-04T09:01:19;99149.65;;;-6.30;86.45
37904;BME280;23738;50.422;18.758;2023-12-04T09:03:48;99147.19;;;-6.09;86.60
37904;BME280;23738;50.422;18.758;2023-12-04T09:06:18;99141.70;;;-5.90;87.03
37904;BME280;23738;50.422;18.758;2023-12-04T09:08:48;99142.46;;;-5.70;87.17
37904;BME280;23738;50.422;18.758;2023-12-04T09:11:18;99137.16;;;-5.51;87.15
37904;BME280;23738;50.422;18.758;2023-12-04T09:13:48;99130.66;;;-5.37;87.13
37904;BME280;23738;50.422;18.758;2023-12-04T09:16:17;99129.42;;;-5.23;87.27
37904;BME280;23738;50.422;18.758;2023-12-04T09:18:47;99125.69;;;-5.12;87.38
37904;BME280;23738;50.422;18.758;2023-12-04T09:21:17;99127.09;;;-4.98;87.54
37904;BME280;23738;50.422;18.758;2023-12-04T09:23:46;99124.48;;;-4.85;87.62
37904;BME280;23738;50.422;18.758;2023-12-04T09:26:18;99124.39;;;-4.69;87.75
37904;BME280;23738;50.422;18.758;2023-12-04T09:28:48;99121.98;;;-4.60;87.52
37904;BME280;23738;50.422;18.758;2023-12-04T09:31:18;99120.80;;;-4.49;87.81
37904;BME280;23738;50.422;18.758;2023-12-04T09:33:48;99120.12;;;-4.38;87.76
37904;BME280;23738;50.422;18.758;2023-12-04T09:36:18;99119.17;;;-4.25;87.94
37904;BME280;23738;50.422;18.758;2023-12-04T09:38:48;99118.58;;;-4.12;87.85
37904;BME280;23738;50.422;18.758;2023-12-04T09:41:18;99112.52;;;-4.01;88.01
37904;BME280;23738;50.422;18.758;2023-12-04T09:43:48;99114.92;;;-3.81;88.18
37904;BME280;23738;50.422;18.758;2023-12-04T09:46:19;99104.04;;;-3.61;88.38
37904;BME280;23738;50.422;18.758;2023-12-04T09:48:50;99103.80;;;-3.42;88.64
37904;BME280;23738;50.422;18.758;2023-12-04T09:51:21;99103.20;;;-3.22;88.66
37904;BME280;23738;50.422;18.758;2023-12-04T09:53:52;99102.25;;;-3.10;88.62
37904;BME280;23738;50.422;18.758;2023-12-04T09:56:22;99095.00;;;-2.97;88.81
37904;BME280;23738;50.422;18.758;2023-12-04T09:58:56;99092.91;;;-2.81;89.17
37904;BME280;23738;50.422;18.758;2023-12-04T10:01:27;99086.93;;;-2.66;89.03
37904;BME280;23738;50.422;18.758;2023-12-04T10:03:58;99084.28;;;-2.55;89.11
37904;BME280;23738;50.422;18.758;2023-12-04T10:06:29;99083.64;;;-2.46;88.92
37904;BME280;23738;50.422;18.758;2023-12-04T10:08:59;99077.80;;;-2.41;88.82
37904;BME280;23738;50.422;18.758;2023-12-04T10:11:29;99071.73;;;-2.33;88.96
37904;BME280;23738;50.422;18.758;2023-12-04T10:13:59;99068.70;;;-2.19;89.18
37904;BME280;23738;50.422;18.758;2023-12-04T10:16:36;99062.50;;;-2.05;89.14
37904;BME280;23738;50.422;18.758;2023-12-04T10:19:20;99057.85;;;-1.90;89.17
37904;BME280;23738;50.422;18.758;2023-12-04T10:21:53;99062.19;;;-1.76;89.38
37904;BME280;23738;50.422;18.758;2023-12-04T10:24:33;99057.85;;;-1.66;89.18
37904;BME280;23738;50.422;18.758;2023-12-04T10:27:05;99048.50;;;-1.56;89.37
37904;BME280;23738;50.422;18.758;2023-12-04T10:29:50;99045.66;;;-1.46;89.40
37904;BME280;23738;50.422;18.758;2023-12-04T10:32:21;99046.49;;;-1.36;89.09
37904;BME280;23738;50.422;18.758;2023-12-04T10:34:51;99039.67;;;-1.26;89.42
37904;BME280;23738;50.422;18.758;2023-12-04T10:37:23;99038.59;;;-1.14;89.46
37904;BME280;23738;50.422;18.758;2023-12-04T10:39:53;99036.36;;;-1.04;89.66
37904;BME280;23738;50.422;18.758;2023-12-04T10:42:27;99034.42;;;-0.97;89.57
37904;BME280;23738;50.422;18.758;2023-12-04T10:44:59;99031.60;;;-0.92;89.17
37904;BME280;23738;50.422;18.758;2023-12-04T10:47:31;99026.48;;;-0.86;89.55
37904;BME280;23738;50.422;18.758;2023-12-04T10:50:03;99020.29;;;-0.75;89.59
37904;BME280;23738;50.422;18.758;2023-12-04T10:52:37;99016.90;;;-0.66;89.35
37904;BME280;23738;50.422;18.758;2023-12-04T10:55:11;99012.73;;;-0.62;89.12
37904;BME280;23738;50.422;18.758;2023-12-04T10:57:44;99011.22;;;-0.58;89.14
37904;BME280;23738;50.422;18.758;2023-12-04T11:00:18;99006.80;;;-0.52;89.42
37904;BME280;23738;50.422;18.758;2023-12-04T11:02:49;99003.84;;;-0.48;89.51
37904;BME280;23738;50.422;18.758;2023-12-04T11:05:20;99001.34;;;-0.47;89.26
37904;BME280;23738;50.422;18.758;2023-12-04T11:07:53;99003.09;;;-0.49;89.03
37904;BME280;23738;50.422;18.758;2023-12-04T11:10:24;99006.14;;;-0.53;88.87
37904;BME280;23738;50.422;18.758;2023-12-04T11:12:58;99003.96;;;-0.58;88.67
37904;BME280;23738;50.422;18.758;2023-12-04T11:15:31;98996.38;;;-0.61;88.92
37904;BME280;23738;50.422;18.758;2023-12-04T11:18:05;98996.45;;;-0.64;88.83
37904;BME280;23738;50.422;18.758;2023-12-04T11:20:39;98990.02;;;-0.68;88.84
37904;BME280;23738;50.422;18.758;2023-12-04T11:23:11;98993.66;;;-0.70;88.32
37904;BME280;23738;50.422;18.758;2023-12-04T11:25:45;98988.73;;;-0.72;88.42
37904;BME280;23738;50.422;18.758;2023-12-04T11:28:16;98990.39;;;-0.68;88.65
37904;BME280;23738;50.422;18.758;2023-12-04T11:30:47;98985.55;;;-0.64;88.25
37904;BME280;23738;50.422;18.758;2023-12-04T11:33:18;98985.83;;;-0.61;88.50
37904;BME280;23738;50.422;18.758;2023-12-04T11:35:48;98982.86;;;-0.60;88.29
37904;BME280;23738;50.422;18.758;2023-12-04T11:38:19;98980.48;;;-0.61;88.22
37904;BME280;23738;50.422;18.758;2023-12-04T11:40:50;98977.79;;;-0.66;87.83
37904;BME280;23738;50.422;18.758;2023-12-04T11:43:26;98973.66;;;-0.73;87.67
37904;BME280;23738;50.422;18.758;2023-12-04T11:46:08;98972.08;;;-0.80;87.98
37904;BME280;23738;50.422;18.758;2023-12-04T11:48:39;98970.75;;;-0.87;87.63
37904;BME280;23738;50.422;18.758;2023-12-04T11:51:10;98972.52;;;-0.95;87.67
37904;BME280;23738;50.422;18.758;2023-12-04T11:53:40;98971.79;;;-1.01;87.64
37904;BME280;23738;50.422;18.758;2023-12-04T11:56:16;98964.61;;;-1.06;87.75
37904;BME280;23738;50.422;18.758;2023-12-04T11:58:46;98963.21;;;-1.11;87.89
37904;BME280;23738;50.422;18.758;2023-12-04T12:01:18;98961.44;;;-1.12;87.88
37904;BME280;23738;50.422;18.758;2023-12-04T12:03:53;98958.90;;;-1.11;87.79
37904;BME280;23738;50.422;18.758;2023-12-04T12:06:24;98955.22;;;-1.08;87.87
37904;BME280;23738;50.422;18.758;2023-12-04T12:08:55;98956.75;;;-1.01;87.80
37904;BME280;23738;50.422;18.758;2023-12-04T12:11:26;98946.18;;;-1.03;87.56
37904;BME280;23738;50.422;18.758;2023-12-04T12:13:56;98940.23;;;-1.04;87.47
37904;BME280;23738;50.422;18.758;2023-12-04T12:16:26;98937.88;;;-1.05;87.46
37904;BME280;23738;50.422;18.758;2023-12-04T12:18:56;98931.91;;;-1.06;87.38
37904;BME280;23738;50.422;18.758;2023-12-04T12:21:27;98926.92;;;-1.11;87.09
37904;BME280;23738;50.422;18.758;2023-12-04T12:23:57;98925.92;;;-1.18;87.17
37904;BME280;23738;50.422;18.758;2023-12-04T12:26:27;98923.95;;;-1.24;87.13
37904;BME280;23738;50.422;18.758;2023-12-04T12:28:57;98918.73;;;-1.31;87.03
37904;BME280;23738;50.422;18.758;2023-12-04T12:31:27;98917.52;;;-1.37;86.99
37904;BME280;23738;50.422;18.758;2023-12-04T12:33:58;98910.08;;;-1.42;86.95
37904;BME280;23738;50.422;18.758;2023-12-04T12:36:28;98906.30;;;-1.49;86.94
37904;BME280;23738;50.422;18.758;2023-12-04T12:38:57;98902.30;;;-1.58;86.82
37904;BME280;23738;50.422;18.758;2023-12-04T12:41:28;98901.70;;;-1.61;86.78
37904;BME280;23738;50.422;18.758;2023-12-04T12:43:58;98899.67;;;-1.67;86.70
37904;BME280;23738;50.422;18.758;2023-12-04T12:46:30;98894.96;;;-1.71;86.65
37904;BME280;23738;50.422;18.758;2023-12-04T12:49:00;98887.10;;;-1.74;86.53
37904;BME280;23738;50.422;18.758;2023-12-04T12:51:30;98886.45;;;-1.77;86.46
37904;BME280;23738;50.422;18.758;2023-12-04T12:54:00;98880.64;;;-1.80;86.33
37904;BME280;23738;50.422;18.758;2023-12-04T12:56:30;98876.48;;;-1.82;86.37
37904;BME280;23738;50.422;18.758;2023-12-04T12:59:01;98875.71;;;-1.85;86.30
37904;BME280;23738;50.422;18.758;2023-12-04T13:01:33;98875.25;;;-1.88;86.31
37904;BME280;23738;50.422;18.758;2023-12-04T13:04:03;98872.71;;;-1.94;86.20
37904;BME280;23738;50.422;18.758;2023-12-04T13:06:33;98869.46;;;-2.01;86.15
37904;BME280;23738;50.422;18.758;2023-12-04T13:09:02;98867.77;;;-2.06;86.07
37904;BME280;23738;50.422;18.758;2023-12-04T13:11:36;98860.99;;;-2.13;86.08